Time;durP1;ratioP1;P1;durP2;ratioP2;P2;SDS_P1;SDS_P2;PMS_P1;PMS_P2;Temp;Humidity;BMP_temperature;BMP_pressure;BME280_temperature;BME280_humidity;BME280_pressure;Samples;Min_cycle;Max_cycle;Signal;HPM_P1;HPM_P2
2022/08/09 00:01:31;;;;;;;6.35;3.72;;;;;;;26.38;48.07;94831.47;5012473;28;20296;-85
2022/08/09 00:03:58;;;;;;;6.13;4.05;;;;;;;26.28;48.07;94824.22;5013082;28;20192;-85
2022/08/09 00:06:25;;;;;;;4.82;3.63;;;;;;;26.28;48.14;94825.00;5012726;28;20181;-85
2022/08/09 00:08:54;;;;;;;8.82;4.03;;;;;;;25.94;48.26;94770.84;5011874;28;20607;-83
2022/08/09 00:11:21;;;;;;;3.95;3.60;;;;;;;26.11;48.37;94810.22;5012344;28;20208;-84
2022/08/09 00:13:49;;;;;;;4.95;3.40;;;;;;;26.14;48.44;94818.44;5012793;28;20549;-82
2022/08/09 00:16:16;;;;;;;7.72;4.30;;;;;;;26.14;48.70;94821.06;5012390;28;20188;-84
2022/08/09 00:18:44;;;;;;;5.07;3.80;;;;;;;26.10;48.56;94821.75;5013041;28;20266;-84
2022/08/09 00:21:11;;;;;;;6.30;3.72;;;;;;;26.13;48.82;94822.09;5012111;28;20197;-84
2022/08/09 00:23:38;;;;;;;5.40;3.75;;;;;;;26.11;48.82;94823.34;5015260;28;20192;-88
2022/08/09 00:26:07;;;;;;;4.75;4.00;;;;;;;26.11;48.77;94823.34;5017561;28;20188;-87
2022/08/09 00:28:35;;;;;;;5.32;3.65;;;;;;;26.07;49.44;94820.38;5014156;28;20227;-86
2022/08/09 00:31:03;;;;;;;6.10;3.80;;;;;;;25.98;49.17;94809.44;5014197;28;20195;-84
2022/08/09 00:33:30;;;;;;;6.22;4.00;;;;;;;25.98;49.38;94822.56;5014259;28;20224;-83
2022/08/09 00:35:58;;;;;;;6.35;4.28;;;;;;;25.97;49.28;94834.06;5015222;28;20597;-86
2022/08/09 00:38:25;;;;;;;3.60;3.28;;;;;;;25.94;49.26;94821.41;5012909;28;20262;-87
2022/08/09 00:40:53;;;;;;;6.53;3.97;;;;;;;25.94;49.29;94825.88;5012174;28;20569;-83
2022/08/09 00:43:21;;;;;;;3.60;3.30;;;;;;;25.79;49.36;94820.31;5011729;28;20254;-85
2022/08/09 00:45:49;;;;;;;7.88;3.80;;;;;;;25.78;49.40;94832.63;5012174;28;20665;-83
2022/08/09 00:48:16;;;;;;;3.95;3.55;;;;;;;25.80;49.71;94835.00;5012050;28;20705;-83
2022/08/09 00:50:43;;;;;;;6.60;3.60;;;;;;;25.76;49.68;94829.38;5011900;28;20576;-84
2022/08/09 00:53:11;;;;;;;5.68;3.97;;;;;;;25.75;49.76;94836.44;5011968;28;20180;-83
2022/08/09 00:55:38;;;;;;;4.45;4.05;;;;;;;25.53;49.59;94801.38;5011973;28;20200;-87
2022/08/09 00:58:05;;;;;;;6.00;4.05;;;;;;;25.65;49.90;94838.06;5012051;28;20207;-85
2022/08/09 01:00:34;;;;;;;4.78;4.10;;;;;;;25.52;49.84;94823.38;5011794;28;20885;-83
2022/08/09 01:03:16;;;;;;;3.65;3.35;;;;;;;25.68;50.16;94851.47;5011915;28;20332;-85
2022/08/09 01:05:52;;;;;;;4.10;3.65;;;;;;;25.67;49.92;94847.28;5011652;28;20219;-86
2022/08/09 01:08:27;;;;;;;5.03;3.72;;;;;;;25.65;50.08;94851.16;5011484;28;20234;-85
2022/08/09 01:11:05;;;;;;;6.20;3.90;;;;;;;25.65;50.26;94853.78;5011908;28;20210;-85
2022/08/09 01:13:45;;;;;;;5.03;3.83;;;;;;;25.64;50.16;94855.56;5011666;28;20243;-85
2022/08/09 01:16:14;;;;;;;4.97;3.75;;;;;;;25.64;50.27;94852.16;5011591;28;20192;-85
2022/08/09 01:18:45;;;;;;;4.03;3.63;;;;;;;25.65;50.39;94851.94;5012010;28;20196;-85
2022/08/09 01:21:21;;;;;;;3.92;3.58;;;;;;;25.65;50.35;94851.16;5010626;28;20184;-83
2022/08/09 01:23:59;;;;;;;4.20;3.67;;;;;;;25.66;50.49;94858.00;5011904;28;20225;-84
2022/08/09 01:26:49;;;;;;;5.32;4.30;;;;;;;25.55;50.70;94835.19;5010940;28;20706;-82
2022/08/09 01:29:19;;;;;;;3.70;3.40;;;;;;;25.63;50.75;94840.09;5011240;28;20709;-86
2022/08/09 01:31:48;;;;;;;6.35;3.90;;;;;;;25.63;50.51;94842.72;5011558;28;20215;-85
2022/08/09 01:34:18;;;;;;;3.92;3.50;;;;;;;25.40;50.64;94809.47;5011232;28;20204;-85
2022/08/09 01:36:47;;;;;;;4.47;3.42;;;;;;;25.63;50.89;94838.28;5011313;28;20192;-83
2022/08/09 01:39:16;;;;;;;6.50;3.75;;;;;;;25.39;51.00;94795.56;5010963;28;20192;-81
2022/08/09 01:41:45;;;;;;;4.40;3.97;;;;;;;25.60;50.55;94823.00;5010866;28;20200;-85
2022/08/09 01:44:15;;;;;;;4.35;3.70;;;;;;;25.67;50.73;94822.91;5011000;28;20573;-82
2022/08/09 01:46:45;;;;;;;5.28;4.07;;;;;;;25.65;50.77;94817.09;5010995;28;20184;-84
2022/08/09 01:49:13;;;;;;;5.18;4.68;;;;;;;25.64;50.30;94811.03;5011196;28;20216;-84
2022/08/09 01:51:43;;;;;;;4.25;3.85;;;;;;;25.50;50.61;94779.06;5010904;28;20248;-82
2022/08/09 01:54:11;;;;;;;4.88;3.75;;;;;;;25.58;50.82;94790.22;5010953;28;20306;-87
2022/08/09 01:56:41;;;;;;;5.50;4.35;;;;;;;25.28;51.50;94744.00;5010654;28;20192;-83
2022/08/09 01:59:12;;;;;;;4.03;3.58;;;;;;;25.62;51.05;94794.78;5011011;28;20649;-82
2022/08/09 02:01:41;;;;;;;5.72;3.70;;;;;;;25.59;50.98;94805.69;5010514;28;20180;-83
2022/08/09 02:04:10;;;;;;;3.72;3.42;;;;;;;25.44;51.44;94805.38;5011209;28;20184;-82
2022/08/09 02:09:25;;;;;;;8.57;4.22;;;;;;;25.02;52.61;94779.22;5010584;28;20230;-83
2022/08/09 02:11:53;;;;;;;4.78;3.83;;;;;;;25.11;52.59;94803.28;5010432;28;20207;-85
2022/08/09 02:14:22;;;;;;;6.40;4.05;;;;;;;25.00;52.25;94778.66;5010706;28;20690;-85
2022/08/09 02:16:51;;;;;;;7.28;4.70;;;;;;;25.09;52.38;94785.19;5010413;28;20653;-86
2022/08/09 02:19:17;;;;;;;4.07;3.55;;;;;;;25.08;52.33;94780.97;5011216;28;20564;-81
2022/08/09 02:21:49;;;;;;;7.28;4.40;;;;;;;24.85;52.63;94775.66;5012510;28;20199;-88
2022/08/09 02:24:20;;;;;;;5.00;4.43;;;;;;;24.64;53.18;94763.88;5011182;28;20280;-84
2022/08/09 02:26:50;;;;;;;7.68;4.15;;;;;;;24.88;52.75;94806.63;5011238;28;20196;-85
2022/08/09 02:29:20;;;;;;;7.25;3.80;;;;;;;24.93;52.84;94811.97;5010865;28;20266;-84
2022/08/09 02:31:52;;;;;;;6.80;4.45;;;;;;;24.94;52.90;94814.34;5009781;28;20199;-85
2022/08/09 02:34:25;;;;;;;7.68;4.20;;;;;;;24.95;52.83;94823.00;5010397;28;20192;-82
2022/08/09 02:36:55;;;;;;;4.60;4.18;;;;;;;24.90;53.33;94823.66;5010252;28;20198;-85
2022/08/09 02:39:27;;;;;;;5.53;4.28;;;;;;;24.87;53.16;94807.63;5022902;28;20196;-84
2022/08/09 02:42:03;;;;;;;5.15;4.30;;;;;;;24.92;53.12;94818.22;5024377;28;20591;-82
2022/08/09 02:44:35;;;;;;;5.80;4.68;;;;;;;24.95;53.52;94821.19;5018296;28;20265;-84
2022/08/09 02:47:05;;;;;;;6.70;4.68;;;;;;;24.67;53.24;94784.38;5014053;28;20207;-84
2022/08/09 02:49:36;;;;;;;9.02;4.20;;;;;;;24.97;53.04;94821.78;5014977;28;20215;-85
2022/08/09 02:52:05;;;;;;;4.63;4.10;;;;;;;24.86;53.05;94806.81;5017824;28;20203;-85
2022/08/09 02:54:34;;;;;;;8.32;4.53;;;;;;;25.01;52.94;94828.16;5019014;28;20188;-84
2022/08/09 02:57:02;;;;;;;5.90;4.25;;;;;;;25.02;52.87;94831.56;5020129;28;20282;-84
2022/08/09 02:59:30;;;;;;;4.88;3.95;;;;;;;24.92;52.96;94813.78;5019164;28;20262;-85
2022/08/09 03:02:02;;;;;;;4.82;4.28;;;;;;;25.03;52.92;94830.53;5010435;28;20207;-84
2022/08/09 03:04:31;;;;;;;7.38;4.60;;;;;;;24.90;53.02;94810.59;5012262;28;20200;-84
2022/08/09 03:07:03;;;;;;;4.68;4.28;;;;;;;25.00;53.35;94820.53;5013315;28;20184;-86
2022/08/09 03:09:31;;;;;;;7.60;4.40;;;;;;;25.06;53.18;94829.31;5009831;28;20314;-85
2022/08/09 03:12:00;;;;;;;6.50;4.28;;;;;;;24.89;53.59;94802.97;5009693;28;20192;-85
2022/08/09 03:14:30;;;;;;;5.00;4.50;;;;;;;24.83;53.71;94799.44;5010211;28;20192;-86
2022/08/09 03:16:59;;;;;;;5.28;4.78;;;;;;;25.02;53.55;94826.31;5010003;28;20219;-85
2022/08/09 03:19:28;;;;;;;6.07;4.32;;;;;;;24.90;53.63;94809.78;5009930;28;20196;-85
2022/08/09 03:21:57;;;;;;;9.77;4.50;;;;;;;25.01;53.79;94828.16;5010647;28;20199;-87
2022/08/09 03:24:25;;;;;;;5.88;4.45;;;;;;;24.68;53.77;94784.16;5010100;28;20197;-86
2022/08/09 03:26:53;;;;;;;7.88;4.40;;;;;;;24.93;54.13;94833.69;5010547;28;20600;-86
2022/08/09 03:29:21;;;;;;;4.72;4.00;;;;;;;24.93;53.92;94827.69;5010005;28;20643;-86
2022/08/09 03:31:49;;;;;;;4.85;4.35;;;;;;;24.88;54.30;94828.34;5009829;28;20192;-85
2022/08/09 03:34:16;;;;;;;4.65;4.25;;;;;;;24.86;54.32;94832.19;5010233;28;20275;-86
2022/08/09 03:36:43;;;;;;;5.07;4.57;;;;;;;24.83;54.76;94830.84;5009509;28;20185;-84
2022/08/09 03:39:12;;;;;;;6.05;4.60;;;;;;;24.78;54.77;94835.91;5009741;28;20571;-87
2022/08/09 03:41:39;;;;;;;6.95;4.97;;;;;;;24.76;55.04;94837.97;5009821;28;20193;-85
2022/08/09 03:44:05;;;;;;;7.70;4.45;;;;;;;24.63;55.22;94822.44;5010140;28;20185;-86
2022/08/09 03:46:32;;;;;;;8.13;4.65;;;;;;;24.71;55.05;94846.47;5013583;28;20196;-86
2022/08/09 03:49:02;;;;;;;5.63;4.60;;;;;;;24.64;55.03;94832.69;5013433;28;20212;-86
2022/08/09 03:51:31;;;;;;;8.82;5.10;;;;;;;24.67;55.29;94847.94;5013467;28;20263;-87
2022/08/09 03:53:58;;;;;;;10.35;4.57;;;;;;;24.65;54.94;94851.78;5013237;28;20695;-86
2022/08/09 03:56:26;;;;;;;10.68;4.57;;;;;;;24.63;55.21;94848.59;5013367;28;20192;-87
2022/08/09 03:58:53;;;;;;;5.65;4.47;;;;;;;24.61;55.56;94850.63;5013142;28;20679;-80
2022/08/09 04:01:21;;;;;;;6.78;4.57;;;;;;;24.53;55.61;94847.31;5013804;28;20192;-85
2022/08/09 04:03:48;;;;;;;4.95;4.05;;;;;;;24.51;55.76;94843.31;5013059;28;20200;-83
2022/08/09 04:06:15;;;;;;;6.43;4.78;;;;;;;24.51;55.70;94844.09;5012807;28;20196;-82
2022/08/09 04:08:43;;;;;;;10.48;4.68;;;;;;;24.45;55.98;94836.38;5012782;28;20216;-82
2022/08/09 04:11:10;;;;;;;10.65;5.18;;;;;;;24.49;56.00;94855.81;5013231;28;20671;-84
2022/08/09 04:13:38;;;;;;;5.05;4.07;;;;;;;24.47;56.21;94858.63;5012687;28;20196;-85
2022/08/09 04:16:06;;;;;;;10.27;4.30;;;;;;;24.45;56.32;94850.22;5014321;28;20637;-86
2022/08/09 04:18:32;;;;;;;9.90;5.75;;;;;;;24.21;56.63;94817.91;5016992;28;20192;-84
2022/08/09 04:20:59;;;;;;;6.22;4.75;;;;;;;24.43;57.04;94846.22;5017529;28;20199;-86
2022/08/09 04:23:26;;;;;;;5.63;5.10;;;;;;;24.36;57.25;94841.06;5013626;28;20181;-85
2022/08/09 04:25:54;;;;;;;7.03;4.70;;;;;;;24.20;57.48;94818.91;5013137;28;20196;-87
2022/08/09 04:28:23;;;;;;;6.90;5.05;;;;;;;24.37;57.92;94842.69;5013569;28;20216;-85
2022/08/09 04:30:51;;;;;;;8.10;4.65;;;;;;;24.43;57.66;94854.06;5012719;28;20181;-87
2022/08/09 04:33:18;;;;;;;10.95;4.97;;;;;;;24.42;57.90;94849.88;5013043;28;20726;-87
2022/08/09 04:35:45;;;;;;;10.20;5.57;;;;;;;24.30;57.99;94834.09;5013128;28;20185;-83
2022/08/09 04:38:12;;;;;;;18.30;5.10;;;;;;;24.37;58.21;94849.69;5012903;28;20207;-86
2022/08/09 04:40:48;;;;;;;10.57;5.38;;;;;;;24.42;58.18;94863.72;5012545;28;20606;-87
2022/08/09 04:43:15;;;;;;;13.07;6.18;;;;;;;24.38;58.09;94849.50;5012481;28;20214;-87
2022/08/09 04:45:43;;;;;;;15.18;6.47;;;;;;;24.27;58.72;94834.53;5011979;28;21335;-87
2022/08/09 04:48:11;;;;;;;9.43;4.97;;;;;;;24.50;57.93;94873.09;5012197;28;20193;-87
2022/08/09 04:50:39;;;;;;;8.77;6.18;;;;;;;24.51;57.88;94869.47;5012182;28;20200;-84
2022/08/09 04:53:06;;;;;;;8.77;5.40;;;;;;;24.18;58.31;94828.00;5012768;28;20227;-85
2022/08/09 04:55:34;;;;;;;6.40;5.75;;;;;;;24.50;58.12;94866.06;5011728;28;20196;-87
2022/08/09 04:58:00;;;;;;;6.15;4.95;;;;;;;24.62;58.00;94870.56;5012372;28;20274;-87
2022/08/09 05:00:27;;;;;;;10.80;5.57;;;;;;;24.72;58.22;94873.44;5012173;28;20553;-83
2022/08/09 05:02:55;;;;;;;8.20;5.50;;;;;;;24.80;58.24;94882.78;5011406;28;20192;-85
2022/08/09 05:05:23;;;;;;;6.07;5.47;;;;;;;24.63;58.00;94831.09;5012209;28;20184;-86
2022/08/09 05:07:50;;;;;;;8.50;5.50;;;;;;;25.00;58.05;94881.50;5011363;28;20667;-84
2022/08/09 05:10:17;;;;;;;12.10;5.22;;;;;;;25.09;57.16;94884.66;5011902;28;20232;-84
2022/08/09 05:12:44;;;;;;;7.22;5.93;;;;;;;25.09;56.59;94868.94;5011749;28;20197;-82
2022/08/09 05:15:11;;;;;;;9.20;6.13;;;;;;;25.05;56.19;94874.81;5011625;28;20222;-83
2022/08/09 05:17:38;;;;;;;12.60;5.75;;;;;;;25.07;55.73;94872.75;5011366;28;20191;-83
2022/08/09 05:20:08;;;;;;;12.15;5.22;;;;;;;25.20;55.64;94881.25;5011678;28;20180;-81
2022/08/09 05:22:37;;;;;;;6.90;4.82;;;;;;;25.35;55.63;94878.22;5011721;28;20200;-83
2022/08/09 05:25:04;;;;;;;5.88;4.90;;;;;;;25.39;55.46;94871.50;5012061;28;20184;-82
2022/08/09 05:27:31;;;;;;;10.45;5.10;;;;;;;25.61;55.28;94884.06;5011509;28;20196;-81
2022/08/09 05:29:58;;;;;;;9.63;5.10;;;;;;;25.44;54.71;94855.91;5011749;28;20239;-86
2022/08/09 05:32:26;;;;;;;9.45;4.85;;;;;;;25.71;54.14;94877.22;5010944;28;20607;-84
2022/08/09 05:34:52;;;;;;;7.65;4.50;;;;;;;25.87;53.63;94886.28;5011239;28;20579;-87
2022/08/09 05:37:19;;;;;;;8.18;4.80;;;;;;;25.88;53.36;94897.56;5011665;28;20640;-86
2022/08/09 05:39:48;;;;;;;6.68;5.30;;;;;;;25.74;53.08;94892.50;5011715;28;20189;-84
2022/08/09 05:42:15;;;;;;;9.52;5.03;;;;;;;25.35;53.19;94857.28;5012216;28;20189;-86
2022/08/09 05:44:42;;;;;;;7.53;4.90;;;;;;;25.79;53.53;94891.84;5010841;28;20196;-88
2022/08/09 05:47:09;;;;;;;8.90;5.22;;;;;;;25.95;53.46;94891.19;5011075;28;20192;-86
2022/08/09 05:49:36;;;;;;;13.90;5.28;;;;;;;25.88;53.26;94866.91;5010683;28;20541;-85
2022/08/09 05:52:03;;;;;;;8.18;4.68;;;;;;;26.09;53.31;94881.25;5011129;28;20188;-83
2022/08/09 05:54:30;;;;;;;6.13;5.00;;;;;;;26.26;52.85;94890.00;5010976;28;20188;-86
2022/08/09 05:56:58;;;;;;;9.38;5.15;;;;;;;26.35;52.74;94889.66;5010925;28;20197;-83
2022/08/09 05:59:25;;;;;;;7.78;4.97;;;;;;;26.44;52.68;94891.72;5010585;28;20541;-84
2022/08/09 06:01:52;;;;;;;9.82;5.18;;;;;;;26.57;51.73;94890.66;5010800;28;20181;-83
2022/08/09 06:04:19;;;;;;;9.57;5.38;;;;;;;26.44;52.23;94878.59;5010956;28;20193;-85
2022/08/09 06:06:46;;;;;;;5.45;4.65;;;;;;;26.59;52.17;94879.91;5010447;28;20181;-84
2022/08/09 06:09:13;;;;;;;10.88;5.60;;;;;;;26.59;52.01;94867.59;5011153;28;20228;-85
2022/08/09 06:11:40;;;;;;;14.90;6.30;;;;;;;26.58;51.50;94852.88;5011227;28;20207;-83
2022/08/09 06:14:08;;;;;;;5.63;4.65;;;;;;;27.04;51.41;94889.69;5010601;28;20196;-84
2022/08/09 06:16:35;;;;;;;6.75;5.03;;;;;;;27.13;50.99;94880.44;5010491;28;20235;-84
2022/08/09 06:19:02;;;;;;;9.80;5.38;;;;;;;27.24;50.37;94887.44;5010722;28;20188;-85
2022/08/09 06:21:29;;;;;;;5.53;4.88;;;;;;;27.11;49.68;94883.28;5010575;28;20652;-83
2022/08/09 06:23:56;;;;;;;6.70;5.05;;;;;;;27.05;49.76;94889.44;5010331;28;20664;-87
2022/08/09 06:26:25;;;;;;;9.20;5.35;;;;;;;27.22;49.55;94890.31;5010619;28;20192;-83
2022/08/09 06:28:55;;;;;;;10.48;4.93;;;;;;;27.16;50.13;94874.69;5010775;28;20680;-83
2022/08/09 06:31:23;;;;;;;6.38;5.30;;;;;;;27.45;49.35;94893.81;5010672;28;20180;-85
2022/08/09 06:33:50;;;;;;;5.95;5.15;;;;;;;27.46;49.08;94884.91;5011034;28;20228;-83
2022/08/09 06:36:17;;;;;;;13.23;4.93;;;;;;;27.49;49.49;94871.31;5010409;28;20631;-83
2022/08/09 06:38:44;;;;;;;6.15;5.03;;;;;;;27.62;48.89;94859.69;5010165;28;20580;-82
2022/08/09 06:41:11;;;;;;;8.70;5.72;;;;;;;27.81;48.41;94862.88;5009736;28;20212;-81
2022/08/09 06:43:38;;;;;;;9.15;5.47;;;;;;;28.04;48.33;94886.34;5009687;28;20192;-82
2022/08/09 06:46:05;;;;;;;8.98;6.50;;;;;;;28.15;47.36;94879.38;5010005;28;20218;-82
2022/08/09 06:48:34;;;;;;;6.70;5.97;;;;;;;28.25;47.10;94882.97;5010192;28;20564;-81
2022/08/09 06:51:01;;;;;;;9.30;6.30;;;;;;;28.11;46.78;94870.38;5010279;28;20220;-81
2022/08/09 06:53:28;;;;;;;7.22;5.70;;;;;;;28.26;47.26;94876.66;5010583;28;20192;-82
2022/08/09 06:55:55;;;;;;;8.35;5.25;;;;;;;28.45;47.02;94874.56;5009776;28;20191;-82
2022/08/09 06:58:23;;;;;;;8.15;5.97;;;;;;;28.73;46.58;94880.66;5010026;28;20215;-82
2022/08/09 07:00:50;;;;;;;8.30;5.75;;;;;;;28.75;45.46;94857.50;5010027;28;20577;-82
2022/08/09 07:03:17;;;;;;;7.05;6.20;;;;;;;29.08;45.18;94888.16;5009986;28;20207;-82
2022/08/09 07:05:45;;;;;;;7.95;5.70;;;;;;;29.32;45.03;94888.66;5010001;28;20641;-84
2022/08/09 07:08:12;;;;;;;11.02;5.43;;;;;;;29.54;44.73;94891.22;5009693;28;20188;-84
2022/08/09 07:10:39;;;;;;;8.77;4.93;;;;;;;29.69;44.39;94875.53;5009740;28;20227;-83
2022/08/09 07:13:06;;;;;;;7.10;4.93;;;;;;;29.98;43.66;94872.56;5009625;28;20192;-82
2022/08/09 07:15:33;;;;;;;6.50;5.05;;;;;;;30.24;43.17;94878.81;5009634;28;20196;-83
2022/08/09 07:18:00;;;;;;;6.70;4.60;;;;;;;30.45;42.46;94877.06;5009956;28;20526;-85
2022/08/09 07:20:27;;;;;;;6.78;4.70;;;;;;;30.65;41.77;94876.34;5014080;28;20189;-83
2022/08/09 07:22:55;;;;;;;8.50;5.28;;;;;;;30.81;41.41;94864.81;5013417;28;20204;-83
2022/08/09 07:25:22;;;;;;;6.13;4.53;;;;;;;30.86;41.65;94880.66;5014212;28;20189;-82
2022/08/09 07:27:49;;;;;;;6.60;4.88;;;;;;;30.83;41.45;94873.28;5013752;28;20184;-81
2022/08/09 07:30:16;;;;;;;4.10;3.63;;;;;;;31.05;41.16;94875.69;5013494;28;20231;-82
2022/08/09 07:32:43;;;;;;;7.20;4.20;;;;;;;31.20;40.69;94877.56;5013890;28;20228;-82
2022/08/09 07:35:12;;;;;;;5.28;3.67;;;;;;;30.98;40.65;94838.16;5013840;28;20185;-81
2022/08/09 07:37:40;;;;;;;6.55;4.30;;;;;;;31.13;40.07;94851.41;5014312;28;20196;-83
2022/08/09 07:40:10;;;;;;;6.90;3.90;;;;;;;31.28;40.05;94860.41;5014997;28;20192;-82
2022/08/09 07:42:48;;;;;;;8.60;4.40;;;;;;;31.48;39.29;94871.81;5015737;28;20232;-81
2022/08/09 07:45:15;;;;;;;6.47;4.15;;;;;;;31.66;38.76;94883.69;5014999;28;20203;-82
2022/08/09 07:47:42;;;;;;;4.78;3.83;;;;;;;31.81;39.34;94885.53;5014096;28;20207;-83
2022/08/09 07:50:09;;;;;;;12.45;3.63;;;;;;;31.75;39.20;94878.66;5014073;28;20595;-83
2022/08/09 07:52:37;;;;;;;9.35;3.85;;;;;;;31.80;38.84;94880.50;5013464;28;20200;-81
2022/08/09 07:55:04;;;;;;;6.22;4.72;;;;;;;31.80;38.21;94870.72;5013762;28;20184;-83
2022/08/09 07:57:33;;;;;;;7.10;4.05;;;;;;;31.71;38.42;94856.47;5014032;28;20211;-81
2022/08/09 08:00:00;;;;;;;6.78;3.75;;;;;;;31.72;38.79;94840.31;5013002;28;20644;-81
2022/08/09 08:02:27;;;;;;;4.10;3.78;;;;;;;32.03;38.08;94873.88;5016012;28;20283;-90
2022/08/09 08:04:54;;;;;;;5.00;3.42;;;;;;;32.12;38.37;94883.66;5016185;28;20240;-86
2022/08/09 08:07:21;;;;;;;3.70;3.20;;;;;;;32.23;37.68;94879.94;5014025;28;20199;-85
2022/08/09 08:09:48;;;;;;;8.50;3.78;;;;;;;32.29;37.57;94877.25;5015389;28;20295;-83
2022/08/09 08:12:15;;;;;;;3.85;3.53;;;;;;;32.22;37.05;94878.34;5019082;28;20196;-87
2022/08/09 08:14:43;;;;;;;6.28;3.95;;;;;;;32.28;37.06;94862.44;5018655;28;20665;-86
2022/08/09 08:17:10;;;;;;;4.22;3.42;;;;;;;32.27;37.11;94837.03;5015682;28;20184;-83
2022/08/09 08:19:42;;;;;;;3.78;3.30;;;;;;;32.52;36.84;94863.47;5014180;28;20270;-87
2022/08/09 08:22:09;;;;;;;8.73;3.60;;;;;;;32.51;36.67;94839.88;5020126;28;20192;-82
2022/08/09 08:24:36;;;;;;;9.02;3.50;;;;;;;32.62;36.41;94863.41;5022806;28;20196;-83
2022/08/09 08:27:03;;;;;;;6.03;3.58;;;;;;;32.72;36.21;94867.84;5022316;28;20196;-85
2022/08/09 08:29:30;;;;;;;4.32;3.67;;;;;;;32.78;35.78;94868.63;5021443;28;20664;-87
2022/08/09 08:32:02;;;;;;;6.78;3.83;;;;;;;32.82;35.67;94864.38;5017414;28;20192;-85
2022/08/09 08:34:29;;;;;;;4.65;3.35;;;;;;;32.61;35.18;94824.75;5018655;28;20235;-88
2022/08/09 08:36:56;;;;;;;7.97;3.45;;;;;;;32.88;35.00;94856.13;5016738;28;20288;-85
2022/08/09 08:39:23;;;;;;;3.78;3.40;;;;;;;32.87;35.12;94854.53;5016211;28;20533;-84
2022/08/09 08:41:51;;;;;;;8.90;3.67;;;;;;;32.80;35.03;94840.00;5013780;28;20195;-84
2022/08/09 08:44:18;;;;;;;6.30;3.78;;;;;;;32.87;35.02;94848.44;5013225;28;20200;-84
2022/08/09 08:46:46;;;;;;;7.65;3.40;;;;;;;32.97;35.02;94851.84;5012662;28;20682;-83
2022/08/09 08:49:15;;;;;;;4.75;3.45;;;;;;;33.01;35.17;94846.78;5016708;28;20185;-82
2022/08/09 08:51:41;;;;;;;5.50;3.30;;;;;;;32.92;34.18;94843.16;5017063;28;20233;-82
2022/08/09 08:54:10;;;;;;;7.38;3.60;;;;;;;32.33;33.99;94804.19;5018325;28;20192;-84
2022/08/09 08:56:39;;;;;;;4.25;3.15;;;;;;;32.49;33.58;94839.38;5016803;28;20197;-82
2022/08/09 08:59:07;;;;;;;6.22;3.22;;;;;;;32.61;33.88;94837.19;5016063;28;20196;-85
2022/08/09 09:01:36;;;;;;;4.45;3.22;;;;;;;32.67;33.66;94836.88;5016676;28;20188;-83
2022/08/09 09:04:03;;;;;;;3.75;3.05;;;;;;;32.61;33.96;94811.50;5013936;28;20664;-84
2022/08/09 09:06:34;;;;;;;5.18;3.33;;;;;;;32.76;33.68;94831.00;5014760;28;20188;-86
2022/08/09 09:09:04;;;;;;;5.35;2.90;;;;;;;32.83;33.94;94834.97;5013143;28;20192;-80
2022/08/09 09:11:31;;;;;;;6.82;3.30;;;;;;;32.80;32.99;94822.25;5012059;28;20224;-81
2022/08/09 09:14:01;;;;;;;6.70;3.10;;;;;;;32.79;32.34;94831.25;5012847;28;20188;-81
2022/08/09 09:16:29;;;;;;;3.50;2.55;;;;;;;32.83;32.99;94819.06;5012573;28;20192;-81
2022/08/09 09:18:56;;;;;;;3.30;2.85;;;;;;;32.83;32.67;94815.63;5013211;28;20204;-82
2022/08/09 09:21:23;;;;;;;6.25;2.90;;;;;;;32.81;32.42;94817.72;5013841;28;20180;-82
2022/08/09 09:23:52;;;;;;;6.55;3.30;;;;;;;32.76;30.09;94805.31;5013477;28;20193;-83
2022/08/09 09:26:24;;;;;;;3.75;2.85;;;;;;;32.61;29.95;94800.91;5016029;28;20192;-80
2022/08/09 09:28:51;;;;;;;3.38;2.58;;;;;;;32.62;28.51;94812.28;5015081;28;20559;-82
2022/08/09 09:31:21;;;;;;;2.67;2.45;;;;;;;32.55;29.55;94795.91;5013956;28;20228;-81
2022/08/09 09:33:48;;;;;;;3.28;2.60;;;;;;;32.34;30.67;94771.34;5011341;28;20255;-82
2022/08/09 09:36:15;;;;;;;3.63;2.53;;;;;;;32.53;31.38;94803.34;5011827;28;20203;-82
2022/08/09 09:38:45;;;;;;;3.75;2.40;;;;;;;32.47;31.30;94797.25;5011860;28;20255;-82
2022/08/09 09:41:28;;;;;;;3.15;2.63;;;;;;;32.45;30.60;94796.75;5011885;28;20203;-81
2022/08/09 09:43:56;;;;;;;3.65;2.85;;;;;;;32.33;31.18;94791.75;5010769;28;20192;-82
2022/08/09 09:46:28;;;;;;;4.35;2.58;;;;;;;32.41;29.69;94799.16;5011675;28;20196;-81
2022/08/09 09:49:00;;;;;;;4.90;2.08;;;;;;;32.41;28.71;94793.84;5011110;28;20283;-82
2022/08/09 09:51:29;;;;;;;2.65;2.13;;;;;;;32.37;29.44;94776.09;5011849;28;20621;-83
2022/08/09 09:54:04;;;;;;;3.75;2.20;;;;;;;32.49;28.82;94795.16;5015924;28;20215;-84
2022/08/09 09:56:33;;;;;;;2.05;1.80;;;;;;;32.51;27.59;94794.84;5014325;28;20191;-86
2022/08/09 09:59:01;;;;;;;4.75;2.85;;;;;;;32.51;29.40;94785.06;5012544;28;20184;-85
2022/08/09 10:01:28;;;;;;;4.68;2.35;;;;;;;32.35;28.41;94789.63;5012904;28;20192;-88
2022/08/09 10:03:56;;;;;;;4.10;2.42;;;;;;;32.36;29.38;94783.25;5012916;28;20184;-86
2022/08/09 10:06:23;;;;;;;4.03;2.22;;;;;;;32.30;28.79;94786.19;5012789;28;20686;-86
2022/08/09 10:08:50;;;;;;;4.65;3.00;;;;;;;32.08;28.50;94789.19;5012173;28;20195;-85
2022/08/09 10:11:21;;;;;;;4.35;2.78;;;;;;;32.05;28.99;94774.66;5012055;28;20232;-85
2022/08/09 10:13:52;;;;;;;6.22;2.78;;;;;;;32.07;28.93;94779.69;5011785;28;20196;-85
2022/08/09 10:16:28;;;;;;;2.38;2.17;;;;;;;31.98;28.40;94767.00;5013106;28;20180;-86
2022/08/09 10:18:57;;;;;;;3.28;2.38;;;;;;;31.95;28.99;94767.56;5012087;28;20695;-87
2022/08/09 10:21:24;;;;;;;3.03;2.15;;;;;;;32.13;29.52;94784.69;5013056;28;20196;-87
2022/08/09 10:23:51;;;;;;;5.53;2.53;;;;;;;31.86;29.38;94768.38;5016353;28;20641;-87
2022/08/09 10:26:20;;;;;;;3.65;2.30;;;;;;;32.07;29.72;94783.13;5011563;28;20207;-87
2022/08/09 10:28:48;;;;;;;3.35;1.92;;;;;;;32.09;29.31;94781.00;5011269;28;20652;-85
2022/08/09 10:31:17;;;;;;;6.22;2.03;;;;;;;32.04;28.34;94783.66;5011919;28;20224;-85
2022/08/09 10:33:44;;;;;;;4.07;2.10;;;;;;;32.03;27.75;94783.91;5011425;28;20610;-87
2022/08/09 10:36:12;;;;;;;4.05;2.20;;;;;;;31.97;28.19;94778.66;5011805;28;20576;-87
2022/08/09 10:38:42;;;;;;;4.95;2.38;;;;;;;31.83;27.83;94771.53;5012943;28;20188;-88
2022/08/09 10:41:09;;;;;;;3.00;2.42;;;;;;;31.46;27.97;94736.44;5012127;28;20192;-89
2022/08/09 10:43:41;;;;;;;4.60;2.30;;;;;;;31.78;28.18;94782.09;5011682;28;20684;-87
2022/08/09 10:46:30;;;;;;;3.28;2.00;;;;;;;31.88;29.00;94780.28;5012025;28;20195;-87
2022/08/09 10:49:07;;;;;;;5.45;2.13;;;;;;;31.94;29.21;94781.84;5012941;28;20206;-87
2022/08/09 10:51:48;;;;;;;3.67;2.40;;;;;;;31.82;27.98;94772.56;5011500;28;20223;-88
2022/08/09 10:54:16;;;;;;;3.75;2.10;;;;;;;31.87;28.42;94778.69;5010962;28;20188;-87
2022/08/09 10:56:43;;;;;;;2.40;2.20;;;;;;;31.80;29.27;94783.44;5011803;28;20193;-84
2022/08/09 10:59:34;;;;;;;2.28;1.90;;;;;;;31.64;29.08;94771.31;5011351;28;20191;-88
2022/08/09 11:02:04;;;;;;;2.60;1.92;;;;;;;31.51;28.33;94763.94;5011070;28;20181;-87
2022/08/09 11:04:32;;;;;;;4.55;1.90;;;;;;;31.33;27.93;94755.50;5012093;28;20198;-87
2022/08/09 11:07:30;;;;;;;3.20;2.00;;;;;;;31.52;28.46;94773.44;5010911;28;20185;-87
2022/08/09 11:09:57;;;;;;;5.25;2.08;;;;;;;31.58;28.47;94769.75;5013182;28;20356;-89
2022/08/09 11:12:27;;;;;;;4.53;1.95;;;;;;;31.47;28.57;94764.44;5011612;28;20287;-86
2022/08/09 11:14:55;;;;;;;4.47;2.42;;;;;;;31.37;28.21;94772.41;5011457;28;20196;-87
2022/08/09 11:17:44;;;;;;;2.38;2.17;;;;;;;31.19;28.65;94771.06;5010739;28;20196;-87
2022/08/09 11:20:14;;;;;;;3.25;2.45;;;;;;;31.15;28.55;94777.16;4931447;28;20203;-86
2022/08/09 11:23:05;;;;;;;4.18;2.08;;;;;;;31.21;29.24;94773.44;4931243;29;20202;-87
2022/08/09 11:25:50;;;;;;;4.80;2.35;;;;;;;31.22;29.64;94767.13;4874204;29;20197;-87
2022/08/09 11:28:38;;;;;;;4.53;2.70;;;;;;;31.39;29.97;94769.47;4874655;29;20597;-87
2022/08/09 11:31:46;;;;;;;2.17;2.05;;;;;;;31.39;30.18;94767.66;4874794;29;20733;-87
2022/08/09 11:34:42;;;;;;;4.05;2.42;;;;;;;30.97;30.00;94694.72;4876188;29;20197;-84
2022/08/09 11:37:10;;;;;;;5.43;2.35;;;;;;;31.22;29.75;94743.34;4874527;29;20205;-85
2022/08/09 11:40:09;;;;;;;5.05;2.17;;;;;;;31.19;29.75;94749.94;4874318;29;20685;-81
2022/08/09 11:42:49;;;;;;;5.55;2.58;;;;;;;31.06;30.01;94745.19;4873847;29;20201;-82
2022/08/09 11:45:24;;;;;;;3.17;2.20;;;;;;;31.13;30.25;94752.81;4875689;29;20292;-86